aviador You're here:

GMMB Decoded Metar

BEN SLIMANE in MOROCCO
Report Time2017-11-25 03:00:00
UTC Time2017-11-25 03:38:44
Flight Rules unknown UNKNOWN
Wind120° at 09 kt
W.Decomp.*RWY 14: 8.6 kt HW 2.8 kt LCW
W.Rank120° ranks 20
Current wind is above 120° avg. (5.2)
VisibilityN/A
Phenomena:N/A
Clouds:N/A
Expected CloudBase > 7,600 ft AGL from Temp-Dew spread
CeilingNone
Temp14°C (ISA 0)
Dew Point-5°C (27% RH)
AAT8.2°C
QNH1020 hPa
Density Alt482 ft
Elevation626 ft
Report Wrong Elevation
Raw Report
METAR GMMB 250300Z AUTO 12009KT //// ////// 14/M05 Q1020 NOSIG=

Extra information for GMMB:More info

Metar Taf Metar & Taf Last 4 Metars F.Rules Stats Wind Profile Meteogram Temp Stats Airport Information Weather charts Add Link Nearby VenuesMetar ALERT Operation Metar Decoded Social comments